Daily Tabular Data
[Select Refresh to Update]


2/16/19
Time         Wind Dir   Wind Spd  Wind Gust     Hum In   Humidity    Temp In       Temp  Raw Barom   Tot Rain Wind Chill Heat Ix In Heat Index  Dew Point  DailyRain   HourRain   RainRate
                            mph        mph          %          %         F         F         in         in         F         F         F         F         in         in      in/hr
12:00am           209          0          2         56         94       64.0       51.8      29.27      16.20       51.8       65.4       58.0       50.1       0.09       0.00      0.000
12:30am           190          2          5         55         95       64.0       49.8      29.27      16.21       49.8       65.3       56.2       48.4       0.01       0.01      0.000
1:00am            255          0          2         56         96       64.0       51.0      29.27      16.21       51.0       65.4       57.6       49.9       0.01       0.01      0.000
1:30am            255          0          0         56         94       63.9       50.8      29.26      16.21       50.8       65.3       57.0       49.1       0.01       0.01      0.000
2:00am            254          0          0         56         94       63.7       50.6      29.26      16.21       50.6       65.1       56.8       48.9       0.01       0.00      0.000
2:30am            234          0          8         55         92       63.7       49.2      29.26      16.21       49.2       65.0       55.1       47.0       0.01       0.00      0.000
3:00am            213          0          4         55         91       63.6       48.5      29.26      16.21       48.5       64.9       54.3       46.0       0.01       0.00      0.000
3:30am            126          0          2         54         90       63.5       49.2      29.25      16.21       49.2       64.7       54.8       46.4       0.01       0.00      0.000
4:00am            225          0          0         54         91       63.4       48.1      29.26      16.21       48.1       64.6       53.9       45.6       0.01       0.00      0.000
4:30am             17          0          0         54         92       63.3       46.9      29.26      16.21       46.9       64.5       52.8       44.7       0.01       0.00      0.000
5:00am            294          0          0         53         94       63.1       45.9      29.27      16.21       45.9       64.2       52.1       44.3       0.01       0.00      0.000
5:30am             71          0          0         53         94       63.0       45.6      29.29      16.21       45.6       64.1       51.8       44.0       0.01       0.00      0.000
6:00am             82          0          0         53         93       62.8       44.4      29.29      16.21       44.4       63.9       50.5       42.5       0.01       0.00      0.000
6:30am             44          0          0         52         92       62.6       44.1      29.30      16.21       44.1       63.6       50.0       41.9       0.01       0.00      0.000
7:00am             44          0          0         52         92       62.4       43.7      29.32      16.21       43.7       63.4       49.6       41.5       0.01       0.00      0.000
7:30am             77          0          0         52         90       62.3       45.7      29.31      16.21       45.7       63.3       51.3       42.9       0.01       0.00      0.000
8:00am             77          0          0         53         86       62.4       51.2      29.33      16.21       51.2       63.5       56.3       47.2       0.01       0.00      0.000
8:30am            227          0          0         53         75       62.7       49.5      29.33      16.21       49.5       63.8       53.1       41.9       0.01       0.00      0.000
9:00am            234          0          6         52         78       63.5       49.1      29.33      16.21       49.1       64.5       53.1       42.5       0.01       0.00      0.000
9:30am            239          3          7         51         66       63.9       49.9      29.33      16.21       49.6       64.8       52.4       39.0       0.01       0.00      0.000
10:00am           248          3          7         51         61       64.0       51.2      29.32      16.21       51.0       64.9       53.1       38.2       0.01       0.00      0.000
10:30am           261          3          9         51         60       63.7       51.9      29.33      16.21       51.8       64.6       53.7       38.5       0.01       0.00      0.000
11:00am           267          0          8         52         58       63.4       53.3      29.33      16.21       53.3       64.4       54.9       38.9       0.01       0.00      0.000
11:30am           258          3         11         52         51       63.3       56.3      29.31      16.21       56.3       64.3       57.2       38.4       0.01       0.00      0.000
12:00pm           200          2          8         52         51       63.3       56.4      29.30      16.21       56.4       64.3       57.3       38.5       0.01       0.00      0.000
12:30pm           235          1         12         53         50       63.4       57.4      29.29      16.21       57.4       64.5       58.2       38.9       0.01       0.00      0.000
1:00pm            217          3         13         52         52       63.6       57.2      29.27      16.21       57.2       64.6       58.2       39.8       0.01       0.00      0.000
1:30pm            207          4         11         52         50       63.7       60.2      29.25      16.21       60.2       64.7       61.0       41.5       0.01       0.00      0.000
2:00pm            258          6         15         52         49       63.8       58.6      29.25      16.21       57.9       64.8       59.3       39.5       0.01       0.00      0.000
2:30pm            192          7         12         52         52       63.9       59.5      29.24      16.21       58.6       64.9       60.5       41.9       0.01       0.00      0.000
3:00pm            282          4         14         52         54       64.1       58.4      29.24      16.21       58.4       65.1       59.6       41.8       0.01       0.00      0.000
3:30pm            123          4         13         51         52       64.3       59.9      29.25      16.21       59.9       65.2       60.9       42.2       0.01       0.00      0.000
4:00pm            239          2         15         51         53       64.4       58.0      29.26      16.21       58.0       65.3       59.1       41.0       0.01       0.00      0.000
4:30pm            237          3         10         51         65       64.4       58.1      29.26      16.21       58.1       65.3       60.5       46.4       0.01       0.00      0.000
5:00pm            242          0          8         51         65       64.5       57.9      29.25      16.21       57.9       65.4       60.3       46.2       0.01       0.00      0.000
5:30pm            207          1         10         51         71       64.5       55.2      29.26      16.21       55.2       65.4       58.3       46.0       0.01       0.00      0.000
6:00pm            223          0          7         51         70       64.5       53.4      29.26      16.21       53.4       65.4       56.4       43.9       0.01       0.00      0.000
6:30pm            208          1          7         50         72       64.5       52.5      29.26      16.21       52.5       65.3       55.7       43.7       0.01       0.00      0.000
7:00pm            246          0          5         51         77       64.5       51.8      29.27      16.21       51.8       65.4       55.6       44.8       0.01       0.00      0.000
7:30pm            248          1          2         50         76       64.4       51.2      29.27      16.21       51.2       65.2       54.9       43.9       0.01       0.00      0.000
8:00pm            244          0          3         50         81       64.4       51.3      29.27      16.21       51.3       65.2       55.7       45.7       0.01       0.00      0.000
8:30pm            246          0          0         53         84       64.2       51.8      29.27      16.21       51.8       65.3       56.6       47.1       0.01       0.00      0.000
9:00pm            249          0          1         53         82       64.1       51.0      29.28      16.21       51.0       65.2       55.5       45.7       0.01       0.00      0.000
9:30pm            217          0          2         53         84       63.9       50.8      29.27      16.21       50.8       65.0       55.6       46.1       0.01       0.00      0.000
10:00pm            53          0          4         52         84       63.9       49.9      29.27      16.21       49.9       64.9       54.7       45.3       0.01       0.00      0.000
10:30pm           214          0          3         51         85       63.8       49.8      29.27      16.21       49.8       64.7       54.7       45.5       0.01       0.00      0.000
11:00pm           240          0          4         51         86       63.7       49.5      29.27      16.21       49.5       64.6       54.6       45.5       0.01       0.00      0.000
11:30pm           252          2          8         50         82       63.7       49.6      29.27      16.21       49.6       64.5       54.1       44.3       0.01       0.00      0.000